Time;durP1;ratioP1;P1;durP2;ratioP2;P2;SDS_P1;SDS_P2;PMS_P1;PMS_P2;Temp;Humidity;BMP_temperature;BMP_pressure;BME280_temperature;BME280_humidity;BME280_pressure;Samples;Min_cycle;Max_cycle;Signal;HPM_P1;HPM_P2
2022/06/05 00:01:27;;;;;;;13.25;7.03;;;11.30;99.90;;;;;;5053213;28;20049;-79
2022/06/05 00:04:25;;;;;;;17.52;7.97;;;11.30;99.90;;;;;;5071171;28;20068;-75
2022/06/05 00:06:55;;;;;;;12.93;6.70;;;11.30;99.90;;;;;;5028509;28;20152;-77
2022/06/05 00:09:33;;;;;;;13.40;6.38;;;11.30;99.90;;;;;;5028518;28;20535;-81
2022/06/05 00:12:11;;;;;;;11.07;7.10;;;11.30;99.90;;;;;;5011716;28;20057;-79
2022/06/05 00:14:38;;;;;;;10.25;7.07;;;11.30;99.90;;;;;;5028387;28;20048;-77
2022/06/05 00:17:08;;;;;;;15.63;7.75;;;11.30;99.90;;;;;;5027668;28;20057;-79
2022/06/05 00:19:36;;;;;;;14.15;8.18;;;11.30;99.90;;;;;;5016020;28;20041;-78
2022/06/05 00:22:02;;;;;;;13.85;7.85;;;11.30;99.90;;;;;;5048118;28;20045;-77
2022/06/05 00:24:27;;;;;;;13.48;7.90;;;11.30;99.90;;;;;;5048060;28;20067;-79
2022/06/05 00:27:24;;;;;;;13.77;7.90;;;11.30;99.90;;;;;;5047650;28;20045;-78
2022/06/05 00:29:57;;;;;;;16.38;8.90;;;11.30;99.90;;;;;;5047829;28;20057;-76
2022/06/05 00:32:37;;;;;;;12.88;8.32;;;11.30;99.90;;;;;;5047892;28;20048;-77
2022/06/05 00:35:04;;;;;;;14.40;7.93;;;11.30;99.90;;;;;;5047842;28;20048;-76
2022/06/05 00:37:34;;;;;;;19.48;8.55;;;11.30;99.90;;;;;;5047484;28;20545;-80
2022/06/05 00:40:30;;;;;;;14.75;9.05;;;11.30;99.90;;;;;;5031080;28;20084;-77
2022/06/05 00:43:01;;;;;;;17.88;8.95;;;11.20;99.90;;;;;;5050052;28;20045;-77
2022/06/05 00:45:29;;;;;;;18.08;8.73;;;11.50;99.90;;;;;;5090496;28;20384;-79
2022/06/05 00:47:55;;;;;;;14.13;9.82;;;11.70;99.90;;;;;;5090417;28;20498;-77
2022/06/05 00:50:28;;;;;;;16.80;10.38;;;11.50;99.90;;;;;;5089738;28;20098;-76
2022/06/05 00:52:56;;;;;;;16.23;9.70;;;11.20;99.90;;;;;;5090103;28;20063;-78
2022/06/05 00:55:24;;;;;;;18.88;9.95;;;11.30;99.90;;;;;;5090197;28;20051;-79
2022/06/05 00:57:52;;;;;;;18.92;10.88;;;11.40;99.90;;;;;;5089803;28;20386;-76
2022/06/05 01:00:25;;;;;;;16.10;10.95;;;11.20;99.90;;;;;;5090062;28;20056;-76
2022/06/05 01:02:54;;;;;;;21.65;10.00;;;11.20;99.90;;;;;;5090103;28;20402;-77
2022/06/05 01:05:22;;;;;;;17.65;9.85;;;11.10;99.90;;;;;;5089935;28;20032;-77
2022/06/05 01:07:48;;;;;;;14.88;9.57;;;11.20;99.90;;;;;;5090271;28;20474;-76
2022/06/05 01:10:16;;;;;;;17.70;10.25;;;11.60;99.90;;;;;;5090529;28;20050;-78
2022/06/05 01:13:00;;;;;;;16.42;9.70;;;11.20;99.90;;;;;;5089889;28;20051;-77
2022/06/05 01:15:45;;;;;;;15.65;10.13;;;11.20;99.90;;;;;;5072581;28;20044;-77
2022/06/05 01:18:35;;;;;;;18.77;10.55;;;11.30;99.90;;;;;;5089854;28;20401;-78
2022/06/05 01:21:20;;;;;;;16.35;9.52;;;11.40;99.90;;;;;;5089448;28;20054;-76
2022/06/05 01:24:37;;;;;;;18.42;10.20;;;11.30;99.90;;;;;;5089834;28;20051;-76
2022/06/05 01:27:06;;;;;;;17.33;9.85;;;11.30;99.90;;;;;;5026968;28;20092;-80
2022/06/05 01:29:44;;;;;;;17.98;10.05;;;11.20;99.90;;;;;;5025911;28;20112;-75
2022/06/05 01:32:19;;;;;;;18.73;10.32;;;11.20;99.90;;;;;;5010620;28;20049;-77
2022/06/05 01:34:59;;;;;;;23.33;10.50;;;11.30;99.90;;;;;;5026990;28;20085;-79
2022/06/05 01:37:35;;;;;;;16.27;9.32;;;11.30;99.90;;;;;;5027039;28;20471;-77
2022/06/05 01:40:44;;;;;;;18.75;10.18;;;11.30;99.90;;;;;;5010959;28;20061;-79
2022/06/05 01:43:25;;;;;;;16.17;9.43;;;11.50;99.90;;;;;;4987345;28;20065;-78
2022/06/05 01:45:56;;;;;;;15.70;9.43;;;11.30;99.90;;;;;;4987809;28;20150;-77
2022/06/05 01:48:28;;;;;;;17.48;10.32;;;11.30;99.90;;;;;;4987804;28;20049;-78
2022/06/05 01:50:57;;;;;;;15.88;9.30;;;11.30;99.90;;;;;;4971228;28;20077;-78
2022/06/05 01:53:36;;;;;;;19.90;9.57;;;11.30;99.90;;;;;;4987964;28;20058;-76
2022/06/05 01:56:04;;;;;;;19.73;9.45;;;11.30;99.90;;;;;;4987887;28;20046;-78
2022/06/05 01:58:39;;;;;;;14.80;9.10;;;11.30;99.90;;;;;;4987886;28;20050;-76
2022/06/05 02:01:10;;;;;;;19.95;9.50;;;11.30;99.90;;;;;;4980841;28;20090;-78
2022/06/05 02:03:48;;;;;;;15.30;8.90;;;11.30;99.90;;;;;;5007526;28;20084;-79
2022/06/05 02:06:20;;;;;;;15.93;9.77;;;11.30;99.90;;;;;;5008501;28;20085;-78
2022/06/05 02:08:51;;;;;;;25.88;10.15;;;11.30;99.90;;;;;;5007646;28;20489;-79
2022/06/05 02:11:26;;;;;;;21.30;9.40;;;11.30;99.90;;;;;;5007389;28;20512;-76
2022/06/05 02:13:56;;;;;;;17.90;8.90;;;11.50;99.90;;;;;;5007841;28;20046;-78
2022/06/05 02:16:22;;;;;;;17.73;9.93;;;11.40;99.90;;;;;;5007298;28;20046;-77
2022/06/05 02:18:48;;;;;;;21.38;8.90;;;11.40;99.90;;;;;;5029710;28;20063;-80
2022/06/05 02:21:14;;;;;;;19.13;9.18;;;11.70;99.90;;;;;;5082798;28;20774;-78
2022/06/05 02:23:41;;;;;;;17.63;9.27;;;11.40;99.90;;;;;;5088981;28;20052;-78
2022/06/05 02:26:08;;;;;;;14.23;9.07;;;11.50;99.90;;;;;;5089215;28;20394;-75
2022/06/05 02:28:35;;;;;;;17.75;9.55;;;11.40;99.90;;;;;;5088891;28;20105;-80
2022/06/05 02:31:19;;;;;;;17.60;9.13;;;11.40;99.90;;;;;;5089386;28;20118;-75
2022/06/05 02:33:47;;;;;;;15.65;9.18;;;11.40;99.90;;;;;;5088925;28;20531;-80
2022/06/05 02:36:31;;;;;;;15.02;8.93;;;11.40;99.90;;;;;;5070982;28;20106;-79
2022/06/05 02:39:10;;;;;;;18.40;9.52;;;11.40;99.90;;;;;;5089594;28;20036;-78
2022/06/05 02:41:49;;;;;;;16.85;9.35;;;11.40;99.90;;;;;;5074240;28;20044;-77
2022/06/05 02:44:29;;;;;;;18.17;9.50;;;11.40;99.90;;;;;;5090993;28;20858;-75
2022/06/05 02:47:09;;;;;;;13.63;9.52;;;11.40;99.90;;;;;;5092178;28;20891;-77
2022/06/05 02:49:42;;;;;;;13.90;9.48;;;11.40;99.90;;;;;;5092522;28;20114;-78
2022/06/05 02:52:09;;;;;;;17.95;10.77;;;11.40;99.90;;;;;;5092944;28;20048;-77
2022/06/05 02:54:40;;;;;;;19.30;9.48;;;11.40;99.90;;;;;;5092918;28;20130;-77
2022/06/05 02:57:06;;;;;;;20.33;9.90;;;11.40;99.90;;;;;;5079113;28;20044;-78
2022/06/05 02:59:32;;;;;;;17.10;9.60;;;11.70;99.90;;;;;;5079373;28;20085;-77
2022/06/05 03:04:42;;;;;;;18.83;10.48;;;11.40;99.90;;;;;;5092550;28;20044;-77
2022/06/05 03:07:08;;;;;;;19.25;10.15;;;11.40;99.90;;;;;;5091942;28;20055;-78
2022/06/05 03:09:34;;;;;;;17.27;10.13;;;11.40;99.90;;;;;;5093109;28;20044;-75
2022/06/05 03:12:01;;;;;;;17.90;10.25;;;11.40;99.90;;;;;;5092648;28;20062;-77
2022/06/05 03:14:27;;;;;;;20.25;10.32;;;11.40;99.90;;;;;;5091891;28;20056;-76
2022/06/05 03:16:52;;;;;;;16.23;10.52;;;11.40;99.90;;;;;;5092359;28;20414;-76
2022/06/05 03:19:19;;;;;;;15.23;10.50;;;11.40;99.90;;;;;;5091520;28;20060;-77
2022/06/05 03:21:45;;;;;;;15.77;10.80;;;11.60;99.90;;;;;;5092126;28;20040;-75
2022/06/05 03:24:10;;;;;;;18.08;10.73;;;11.50;99.90;;;;;;5092318;28;20462;-76
2022/06/05 03:26:36;;;;;;;18.17;9.98;;;11.40;99.90;;;;;;5074510;28;20048;-75
2022/06/05 03:29:03;;;;;;;23.58;11.38;;;11.70;99.90;;;;;;5092594;28;20051;-79
2022/06/05 03:31:29;;;;;;;20.30;11.23;;;11.50;99.90;;;;;;5092173;28;20044;-78
2022/06/05 03:33:55;;;;;;;20.30;11.20;;;11.60;99.90;;;;;;5074028;28;20056;-76
2022/06/05 03:36:20;;;;;;;18.85;11.43;;;11.50;99.90;;;;;;5092673;28;20032;-77
2022/06/05 03:38:46;;;;;;;24.52;11.00;;;11.50;99.90;;;;;;5092347;28;20139;-77
2022/06/05 03:41:16;;;;;;;20.20;11.25;;;11.70;99.90;;;;;;5092211;28;20459;-77
2022/06/05 03:43:42;;;;;;;21.25;11.82;;;11.70;99.90;;;;;;5091375;28;20032;-74
2022/06/05 03:46:10;;;;;;;19.67;11.20;;;11.60;99.90;;;;;;5091392;28;20043;-79
2022/06/05 03:48:36;;;;;;;17.17;11.35;;;11.60;99.90;;;;;;5091700;28;20048;-80
2022/06/05 03:51:11;;;;;;;21.15;11.10;;;11.60;99.90;;;;;;5091759;28;20080;-78
2022/06/05 03:53:38;;;;;;;15.00;10.88;;;11.60;99.90;;;;;;5091915;28;20067;-77
2022/06/05 03:56:08;;;;;;;19.52;11.15;;;11.60;99.90;;;;;;5072066;28;20048;-78
2022/06/05 03:58:34;;;;;;;18.77;11.25;;;11.60;99.90;;;;;;5071574;28;20103;-80
2022/06/05 04:00:59;;;;;;;19.55;10.57;;;11.90;99.90;;;;;;5089430;28;20079;-79
2022/06/05 04:03:25;;;;;;;19.20;10.38;;;11.70;99.90;;;;;;5082818;28;20047;-78
2022/06/05 04:05:51;;;;;;;15.15;11.18;;;11.70;99.90;;;;;;5090274;28;20063;-77
2022/06/05 04:08:17;;;;;;;20.88;11.02;;;11.80;99.90;;;;;;5090534;28;20051;-78
2022/06/05 04:10:43;;;;;;;18.85;11.27;;;11.80;99.90;;;;;;5091218;28;20120;-78
2022/06/05 04:13:09;;;;;;;17.50;10.90;;;11.90;99.90;;;;;;5090055;28;20067;-76
2022/06/05 04:15:39;;;;;;;21.42;12.00;;;11.90;99.90;;;;;;5090326;28;20119;-79
2022/06/05 04:18:05;;;;;;;21.92;11.18;;;11.90;99.90;;;;;;5071823;28;20056;-77
2022/06/05 04:20:30;;;;;;;19.67;11.35;;;12.00;99.90;;;;;;5082107;28;20032;-76
2022/06/05 04:22:56;;;;;;;17.85;11.18;;;12.20;99.90;;;;;;5090210;28;20054;-75
2022/06/05 04:25:22;;;;;;;18.00;10.95;;;12.10;99.90;;;;;;5089809;28;20036;-77
2022/06/05 04:27:48;;;;;;;22.38;12.07;;;12.10;99.90;;;;;;5091063;28;20052;-77
2022/06/05 04:30:13;;;;;;;20.30;11.45;;;12.20;99.90;;;;;;5091033;28;20097;-75
2022/06/05 04:32:39;;;;;;;21.75;11.65;;;12.30;99.90;;;;;;5090937;28;20040;-79
2022/06/05 04:35:05;;;;;;;21.42;11.43;;;12.30;99.90;;;;;;5090252;28;20043;-79
2022/06/05 04:37:31;;;;;;;19.20;10.93;;;12.40;99.90;;;;;;5089756;28;20048;-77
2022/06/05 04:39:57;;;;;;;20.05;10.88;;;12.70;99.90;;;;;;5090428;28;20047;-75
2022/06/05 04:42:22;;;;;;;19.58;11.07;;;12.90;99.90;;;;;;5089769;28;20047;-77
2022/06/05 04:44:48;;;;;;;17.27;11.00;;;12.50;99.90;;;;;;5081230;28;20036;-81
2022/06/05 04:47:13;;;;;;;15.02;10.75;;;12.60;99.90;;;;;;5090364;28;20044;-79
2022/06/05 04:49:39;;;;;;;19.98;10.77;;;12.60;99.90;;;;;;5089395;28;20058;-79
2022/06/05 04:52:05;;;;;;;20.50;11.30;;;12.70;99.90;;;;;;5089804;28;20490;-78
2022/06/05 04:54:30;;;;;;;20.83;10.70;;;12.70;99.90;;;;;;5089659;28;20082;-81
2022/06/05 04:56:56;;;;;;;19.50;10.70;;;12.80;99.90;;;;;;5071147;28;20052;-76
2022/06/05 04:59:22;;;;;;;20.83;10.65;;;12.80;99.90;;;;;;5089876;28;20038;-78
2022/06/05 05:01:47;;;;;;;22.00;12.02;;;12.90;99.90;;;;;;5089859;28;20146;-80
2022/06/05 05:04:14;;;;;;;15.98;11.23;;;13.00;99.90;;;;;;5088836;28;20303;-79
2022/06/05 05:06:42;;;;;;;18.80;10.65;;;13.20;99.90;;;;;;5089976;28;20040;-79
2022/06/05 05:09:08;;;;;;;19.33;10.88;;;13.00;99.90;;;;;;5089413;28;20094;-77
2022/06/05 05:11:35;;;;;;;16.27;10.35;;;13.10;99.90;;;;;;5071120;28;20043;-78
2022/06/05 05:14:01;;;;;;;18.63;10.80;;;13.10;99.90;;;;;;5089182;28;20051;-78
2022/06/05 05:16:29;;;;;;;17.20;10.93;;;13.40;99.90;;;;;;5089395;28;20040;-78
2022/06/05 05:18:55;;;;;;;17.55;10.68;;;13.10;99.90;;;;;;5089146;28;20082;-79
2022/06/05 05:21:23;;;;;;;17.48;9.95;;;13.20;99.90;;;;;;5088694;28;20048;-77
2022/06/05 05:23:50;;;;;;;15.95;10.50;;;13.30;99.90;;;;;;5089026;28;20083;-81
2022/06/05 05:26:28;;;;;;;15.77;9.65;;;13.30;99.90;;;;;;5088767;28;20102;-81
2022/06/05 05:28:55;;;;;;;16.42;10.10;;;13.40;99.90;;;;;;5071129;28;20826;-82
2022/06/05 05:31:23;;;;;;;18.52;9.98;;;13.50;99.90;;;;;;5071059;28;20045;-81
2022/06/05 05:33:50;;;;;;;16.15;10.68;;;13.60;99.90;;;;;;5088637;28;20044;-81
2022/06/05 05:36:21;;;;;;;16.95;9.85;;;13.70;99.90;;;;;;5069106;28;20047;-76
2022/06/05 05:44:17;;;;;;;;;;;13.90;99.90;;;;;;5089549;28;20051;-81
2022/06/05 05:46:43;;;;;;;16.05;9.88;;;13.90;99.90;;;;;;5089426;28;19931;-82
2022/06/05 05:49:10;;;;;;;16.70;10.63;;;14.00;99.90;;;;;;5089502;28;20109;-81
2022/06/05 05:51:37;;;;;;;14.98;9.85;;;14.30;99.90;;;;;;5088538;28;20078;-78
2022/06/05 05:54:03;;;;;;;16.48;10.38;;;14.10;99.90;;;;;;5089533;28;20071;-80
2022/06/05 05:56:29;;;;;;;15.23;10.25;;;14.50;99.90;;;;;;5089062;28;20081;-80
2022/06/05 05:58:55;;;;;;;14.80;9.57;;;14.40;99.90;;;;;;5081967;28;20048;-80
2022/06/05 06:01:21;;;;;;;14.40;9.90;;;14.30;99.90;;;;;;5089480;28;20406;-81
2022/06/05 06:03:47;;;;;;;16.00;9.63;;;14.40;99.90;;;;;;5089285;28;20558;-80
2022/06/05 06:06:12;;;;;;;17.05;10.68;;;14.40;99.90;;;;;;5070519;28;20048;-83
2022/06/05 06:08:38;;;;;;;18.45;10.60;;;14.60;99.90;;;;;;5088838;28;20044;-80
2022/06/05 06:11:04;;;;;;;14.20;9.25;;;14.50;99.90;;;;;;5071059;28;20123;-81
2022/06/05 06:13:30;;;;;;;13.02;9.48;;;15.00;99.90;;;;;;5070251;28;20038;-81
2022/06/05 06:15:56;;;;;;;17.27;9.77;;;14.70;99.90;;;;;;5091340;28;21407;-81
2022/06/05 06:18:22;;;;;;;15.05;10.02;;;15.00;99.90;;;;;;5074692;28;20082;-79
2022/06/05 06:20:48;;;;;;;12.98;9.43;;;14.70;99.90;;;;;;5092167;28;20808;-79
2022/06/05 06:23:15;;;;;;;14.25;9.40;;;15.20;99.90;;;;;;5093505;28;20075;-76
2022/06/05 06:25:41;;;;;;;13.00;9.48;;;14.90;99.90;;;;;;5093167;28;20445;-80
2022/06/05 06:28:08;;;;;;;15.50;9.68;;;15.00;99.90;;;;;;5093059;28;20032;-81
2022/06/05 06:30:34;;;;;;;14.23;9.68;;;15.20;99.90;;;;;;5093619;28;20040;-76
2022/06/05 06:33:00;;;;;;;16.67;10.15;;;15.10;99.90;;;;;;5092165;28;20051;-81
2022/06/05 06:35:26;;;;;;;16.13;9.75;;;15.20;99.90;;;;;;5092627;28;20043;-79
2022/06/05 06:37:52;;;;;;;15.18;9.85;;;15.20;99.90;;;;;;5093102;28;20050;-77
2022/06/05 06:40:18;;;;;;;15.07;10.32;;;15.30;99.90;;;;;;5092921;28;20444;-78
2022/06/05 06:42:43;;;;;;;15.38;10.05;;;15.40;99.90;;;;;;5066191;28;20094;-77
2022/06/05 06:45:10;;;;;;;16.38;9.10;;;15.50;99.90;;;;;;5092003;28;20099;-79
2022/06/05 06:47:35;;;;;;;14.43;9.45;;;15.60;99.90;;;;;;5092451;28;20075;-80
2022/06/05 06:50:01;;;;;;;12.93;8.85;;;15.60;99.90;;;;;;5091593;28;20083;-84
2022/06/05 06:52:27;;;;;;;12.60;8.98;;;15.90;99.90;;;;;;5073447;28;20397;-80
2022/06/05 06:54:56;;;;;;;14.80;9.00;;;15.80;99.90;;;;;;5092394;28;20043;-77
2022/06/05 06:57:21;;;;;;;15.25;9.45;;;15.90;99.90;;;;;;5092472;28;20036;-81
2022/06/05 06:59:47;;;;;;;15.07;10.10;;;16.00;99.90;;;;;;5092114;28;20040;-78
2022/06/05 07:02:13;;;;;;;15.82;9.00;;;16.30;99.90;;;;;;5091219;28;20040;-83
2022/06/05 07:04:38;;;;;;;13.20;8.48;;;16.20;99.90;;;;;;5091903;28;20040;-79
2022/06/05 07:07:04;;;;;;;16.63;9.63;;;16.30;99.90;;;;;;5072956;28;20537;-82
2022/06/05 07:09:32;;;;;;;12.65;8.70;;;16.40;99.90;;;;;;5091181;28;20094;-83
2022/06/05 07:11:57;;;;;;;12.82;8.73;;;16.40;99.90;;;;;;5074040;28;20491;-80
2022/06/05 07:14:25;;;;;;;13.10;8.57;;;16.60;99.90;;;;;;5091664;28;20060;-81
2022/06/05 07:16:51;;;;;;;13.65;9.00;;;16.70;99.90;;;;;;5092169;28;20089;-83
2022/06/05 07:19:17;;;;;;;12.35;9.00;;;16.80;99.90;;;;;;5091506;28;20078;-82
2022/06/05 07:21:43;;;;;;;13.65;8.95;;;16.90;99.90;;;;;;5091581;28;20482;-79
2022/06/05 07:24:09;;;;;;;14.32;8.93;;;17.00;99.90;;;;;;5072209;28;20054;-87
2022/06/05 07:26:35;;;;;;;11.85;8.18;;;17.10;99.90;;;;;;5090162;28;20071;-77
2022/06/05 07:29:02;;;;;;;11.43;8.65;;;17.20;99.90;;;;;;5091889;28;20081;-78
2022/06/05 07:31:29;;;;;;;14.15;8.55;;;17.40;99.90;;;;;;5083122;28;20466;-81
2022/06/05 07:33:56;;;;;;;13.60;8.35;;;17.40;99.90;;;;;;5082034;28;20127;-81
2022/06/05 07:36:22;;;;;;;11.07;7.95;;;17.50;99.90;;;;;;5091644;28;20044;-79
2022/06/05 07:38:49;;;;;;;12.52;8.10;;;17.70;99.90;;;;;;5091031;28;20608;-78
2022/06/05 07:41:26;;;;;;;14.15;7.93;;;17.80;99.90;;;;;;5091080;28;20133;-80
2022/06/05 07:43:52;;;;;;;8.95;7.78;;;17.90;99.90;;;;;;5091380;28;20206;-80
2022/06/05 07:46:18;;;;;;;14.32;7.78;;;18.20;99.90;;;;;;5071448;28;20063;-81
2022/06/05 07:48:45;;;;;;;11.23;7.68;;;18.30;99.90;;;;;;5083934;28;20438;-81
2022/06/05 07:56:49;;;;;;;10.77;6.60;;;18.50;99.90;;;;;;5084549;28;20554;-80
2022/06/05 07:59:15;;;;;;;10.02;7.55;;;18.70;99.90;;;;;;5091221;28;20127;-79
2022/06/05 08:01:41;;;;;;;9.70;6.85;;;18.70;99.90;;;;;;5091327;28;20028;-80
2022/06/05 08:04:06;;;;;;;10.43;7.38;;;18.90;99.90;;;;;;5090962;28;20890;-78
2022/06/05 08:06:34;;;;;;;10.65;7.57;;;19.00;99.90;;;;;;5090576;28;20445;-84
2022/06/05 08:09:01;;;;;;;10.90;7.07;;;18.90;99.90;;;;;;5090534;28;20050;-82
2022/06/05 08:11:27;;;;;;;10.55;7.03;;;19.20;99.90;;;;;;5071923;28;20091;-83
2022/06/05 08:13:52;;;;;;;11.25;7.20;;;19.40;99.90;;;;;;5071735;28;20502;-77
2022/06/05 08:16:18;;;;;;;9.18;6.80;;;19.50;99.90;;;;;;5091034;28;20044;-82
2022/06/05 08:18:44;;;;;;;9.40;6.80;;;19.50;99.90;;;;;;5072060;28;20052;-81
2022/06/05 08:21:09;;;;;;;10.48;7.38;;;19.60;99.90;;;;;;5090366;28;20036;-77
2022/06/05 08:23:35;;;;;;;9.30;6.57;;;19.60;99.90;;;;;;5090128;28;20047;-81
2022/06/05 08:26:01;;;;;;;9.95;6.93;;;19.80;99.90;;;;;;5056175;28;20099;-81
2022/06/05 08:28:27;;;;;;;9.52;6.70;;;19.90;99.90;;;;;;5090655;28;20085;-83
2022/06/05 08:30:56;;;;;;;7.80;6.18;;;20.00;99.90;;;;;;5082028;28;20048;-80
2022/06/05 08:33:22;;;;;;;8.32;6.30;;;20.10;99.90;;;;;;5091546;28;20040;-79
2022/06/05 08:35:49;;;;;;;10.77;6.35;;;20.20;99.90;;;;;;5091504;28;20051;-79
2022/06/05 08:41:33;;;;;;;9.07;6.28;;;20.30;99.90;;;;;;5090201;28;20047;-80
2022/06/05 08:44:18;;;;;;;8.27;6.15;;;20.40;99.90;;;;;;5086016;28;20410;-81
2022/06/05 08:47:27;;;;;;;7.68;6.15;;;20.40;99.90;;;;;;5083592;28;20059;-78
2022/06/05 08:50:01;;;;;;;7.28;5.68;;;20.50;99.90;;;;;;4992101;28;20062;-81
2022/06/05 08:52:47;;;;;;;10.20;5.90;;;20.60;99.90;;;;;;4987579;28;20053;-82
2022/06/05 08:55:29;;;;;;;7.80;5.65;;;20.70;99.90;;;;;;4987929;28;20497;-79
2022/06/05 08:58:05;;;;;;;8.55;5.35;;;20.80;99.90;;;;;;4972433;28;20069;-85
2022/06/05 09:00:37;;;;;;;7.30;5.50;;;20.80;99.90;;;;;;4987851;28;20382;-81
2022/06/05 09:03:07;;;;;;;7.55;5.40;;;21.00;99.90;;;;;;4988099;28;20046;-83
2022/06/05 09:05:40;;;;;;;6.40;5.38;;;21.10;99.90;;;;;;4988316;28;20720;-80
2022/06/05 09:08:22;;;;;;;9.55;4.85;;;21.10;99.90;;;;;;4988668;28;20078;-80
2022/06/05 09:10:55;;;;;;;10.05;4.78;;;21.30;99.90;;;;;;4987866;28;20521;-81
2022/06/05 09:13:55;;;;;;;6.72;4.60;;;21.30;99.90;;;;;;4988747;28;20042;-82
2022/06/05 09:16:30;;;;;;;8.38;5.13;;;21.50;99.90;;;;;;4988452;28;20058;-79
2022/06/05 09:18:57;;;;;;;8.30;5.35;;;21.50;99.90;;;;;;4987951;28;20050;-77
2022/06/05 09:21:28;;;;;;;7.35;5.20;;;21.60;99.90;;;;;;4987893;28;20038;-82
2022/06/05 09:24:23;;;;;;;10.55;5.70;;;21.60;99.90;;;;;;5009092;28;20143;-77
2022/06/05 09:27:01;;;;;;;8.10;5.45;;;21.70;99.90;;;;;;5066036;28;20040;-77
2022/06/05 09:29:50;;;;;;;5.57;4.93;;;21.80;99.90;;;;;;5032283;28;20053;-78
2022/06/05 09:32:22;;;;;;;11.30;5.55;;;21.90;99.90;;;;;;5056432;28;20052;-82
2022/06/05 09:34:56;;;;;;;9.02;5.10;;;21.90;99.90;;;;;;5059054;28;20032;-81
2022/06/05 09:38:01;;;;;;;9.32;5.85;;;22.00;99.90;;;;;;5057936;28;20110;-83
2022/06/05 09:40:37;;;;;;;9.88;5.60;;;22.10;99.90;;;;;;5003234;28;20394;-82
2022/06/05 09:43:31;;;;;;;9.23;5.57;;;22.30;99.90;;;;;;5006841;28;20568;-83
2022/06/05 09:46:15;;;;;;;10.30;6.18;;;22.40;99.90;;;;;;5007071;28;20061;-82
2022/06/05 09:48:43;;;;;;;8.02;5.80;;;22.50;99.90;;;;;;5006917;28;20050;-78
2022/06/05 09:51:12;;;;;;;6.82;5.13;;;22.60;99.90;;;;;;5018601;28;20045;-81
2022/06/05 09:54:12;;;;;;;7.90;4.95;;;22.80;99.90;;;;;;5026484;28;20049;-78
2022/06/05 10:00:15;;;;;;;7.10;5.07;;;22.90;99.90;;;;;;5003655;28;20073;-81
2022/06/05 10:02:43;;;;;;;6.40;5.10;;;23.10;99.90;;;;;;4990753;28;20108;-80
2022/06/05 10:05:14;;;;;;;6.28;5.00;;;23.10;99.90;;;;;;5019003;28;20073;-80
2022/06/05 10:07:48;;;;;;;8.27;5.05;;;23.20;99.90;;;;;;5026212;28;20077;-76
2022/06/05 10:10:24;;;;;;;9.15;5.32;;;23.20;99.90;;;;;;5027092;28;20087;-80
2022/06/05 10:12:58;;;;;;;9.43;4.47;;;23.20;99.90;;;;;;5024954;28;20049;-78
2022/06/05 10:15:52;;;;;;;7.63;4.90;;;23.30;99.90;;;;;;5072463;28;20139;-80
2022/06/05 10:18:29;;;;;;;9.87;5.17;;;23.30;99.90;;;;;;5074298;28;20051;-79
2022/06/05 10:21:07;;;;;;;8.13;5.25;;;23.40;99.90;;;;;;5087621;28;20044;-79
2022/06/05 10:23:49;;;;;;;8.70;5.20;;;23.40;99.90;;;;;;5088627;28;20062;-83
2022/06/05 10:26:15;;;;;;;7.05;5.00;;;23.40;99.90;;;;;;5062704;28;20047;-78
2022/06/05 10:28:43;;;;;;;6.57;4.18;;;23.40;99.90;;;;;;5072220;28;20052;-80
2022/06/05 10:31:22;;;;;;;8.63;4.82;;;23.40;99.90;;;;;;5057520;28;20052;-81
2022/06/05 10:33:52;;;;;;;6.90;4.53;;;23.50;99.90;;;;;;5080423;28;20048;-80
2022/06/05 10:36:20;;;;;;;10.18;4.95;;;23.60;99.90;;;;;;5074025;28;20102;-84
2022/06/05 10:39:15;;;;;;;8.75;5.10;;;23.50;99.90;;;;;;5051485;28;20045;-78
2022/06/05 10:41:54;;;;;;;6.97;4.05;;;23.50;99.90;;;;;;4990845;28;20100;-78
2022/06/05 10:44:54;;;;;;;6.95;4.50;;;23.50;99.90;;;;;;4990359;28;20054;-81
2022/06/05 10:47:47;;;;;;;6.10;3.97;;;23.50;99.90;;;;;;5007087;28;20089;-80
2022/06/05 10:50:21;;;;;;;7.40;4.80;;;23.50;99.90;;;;;;5006844;28;20574;-82
2022/06/05 10:53:07;;;;;;;9.43;4.20;;;23.50;99.90;;;;;;5006940;28;20557;-81
2022/06/05 10:56:00;;;;;;;8.00;4.13;;;23.60;99.90;;;;;;5006709;28;20054;-82
2022/06/05 10:58:34;;;;;;;9.07;4.60;;;23.70;99.90;;;;;;4990574;28;20556;-81
2022/06/05 11:01:31;;;;;;;10.10;4.07;;;23.80;99.90;;;;;;5007645;28;20136;-83
2022/06/05 11:04:11;;;;;;;6.78;4.22;;;23.80;99.90;;;;;;4935703;29;20551;-83
2022/06/05 11:07:03;;;;;;;8.85;4.10;;;23.80;99.90;;;;;;4936117;29;20510;-81
2022/06/05 11:09:42;;;;;;;7.95;4.18;;;23.90;99.90;;;;;;4952191;29;20114;-82
2022/06/05 11:15:44;;;;;;;6.40;4.00;;;23.80;99.90;;;;;;4951849;28;20086;-79
2022/06/05 11:18:38;;;;;;;7.25;4.57;;;23.80;99.90;;;;;;4972276;28;20472;-81
2022/06/05 11:21:06;;;;;;;6.72;4.45;;;23.70;99.90;;;;;;4990578;28;20058;-79
2022/06/05 11:23:38;;;;;;;7.43;4.30;;;23.60;99.90;;;;;;4990470;28;20050;-82
2022/06/05 11:26:06;;;;;;;5.95;4.65;;;23.60;99.90;;;;;;4974330;28;20511;-83
2022/06/05 11:29:26;;;;;;;4.53;3.90;;;23.60;99.90;;;;;;4973839;28;20046;-76
2022/06/05 11:31:54;;;;;;;10.20;4.13;;;23.70;99.90;;;;;;4932441;29;20048;-83
2022/06/05 11:34:43;;;;;;;6.85;4.43;;;23.80;99.90;;;;;;4934814;29;20651;-82
2022/06/05 11:37:43;;;;;;;5.72;3.92;;;23.70;99.90;;;;;;4950827;29;20062;-83
2022/06/05 11:40:31;;;;;;;5.57;3.83;;;23.70;99.90;;;;;;4963705;28;20058;-86
2022/06/05 11:43:20;;;;;;;7.18;4.30;;;23.80;99.90;;;;;;5000532;28;20048;-84
2022/06/05 11:46:09;;;;;;;8.27;4.43;;;23.80;99.90;;;;;;5008823;28;20093;-85
2022/06/05 11:48:48;;;;;;;8.07;4.10;;;23.80;99.90;;;;;;4988898;28;20060;-81
2022/06/05 11:51:21;;;;;;;11.40;4.50;;;23.90;99.90;;;;;;5001913;28;20050;-78
2022/06/05 11:53:55;;;;;;;9.50;4.38;;;23.90;99.90;;;;;;5008719;28;20057;-85
2022/06/05 11:56:41;;;;;;;7.50;4.70;;;23.90;99.90;;;;;;5009509;28;20053;-82
2022/06/05 11:59:26;;;;;;;10.30;4.30;;;23.80;99.90;;;;;;5008291;28;20473;-83
2022/06/05 12:02:30;;;;;;;7.13;4.47;;;24.00;99.90;;;;;;5008756;28;20049;-78
2022/06/05 12:05:08;;;;;;;5.55;3.88;;;23.90;99.90;;;;;;5013188;28;20056;-81
2022/06/05 12:07:34;;;;;;;10.05;4.07;;;23.90;99.90;;;;;;5064877;28;20048;-77
2022/06/05 12:10:10;;;;;;;5.15;3.80;;;23.90;99.90;;;;;;5073870;28;20048;-83
2022/06/05 12:12:35;;;;;;;8.20;3.70;;;24.00;99.90;;;;;;5072570;28;20082;-79
2022/06/05 12:15:31;;;;;;;4.10;3.67;;;23.90;99.90;;;;;;5072615;28;20094;-77
2022/06/05 12:18:00;;;;;;;5.93;3.97;;;23.90;99.90;;;;;;5072722;28;20149;-80
2022/06/05 12:20:34;;;;;;;4.97;3.72;;;24.00;99.90;;;;;;5072297;28;20066;-80
2022/06/05 12:23:12;;;;;;;7.95;4.18;;;23.90;99.90;;;;;;5080626;28;20044;-79
2022/06/05 12:25:54;;;;;;;14.45;4.18;;;24.00;99.90;;;;;;5074292;28;20049;-79
2022/06/05 12:28:26;;;;;;;6.72;3.75;;;24.20;99.90;;;;;;5074055;28;20177;-82
2022/06/05 12:31:05;;;;;;;5.47;4.00;;;24.20;99.90;;;;;;5071870;28;20055;-81
2022/06/05 12:33:46;;;;;;;6.90;3.85;;;24.20;99.90;;;;;;5091291;28;20048;-79
2022/06/05 12:36:16;;;;;;;5.65;4.07;;;24.20;99.90;;;;;;5072720;28;20688;-77
2022/06/05 12:39:05;;;;;;;7.70;4.15;;;24.20;99.90;;;;;;5091119;28;20048;-76
2022/06/05 12:41:42;;;;;;;6.72;3.50;;;24.20;99.90;;;;;;5073561;28;20041;-75
2022/06/05 12:44:32;;;;;;;5.57;3.72;;;24.20;99.90;;;;;;5078706;28;20430;-78
2022/06/05 12:47:10;;;;;;;4.88;3.53;;;24.20;99.90;;;;;;5068494;28;20127;-76
2022/06/05 12:49:55;;;;;;;7.28;4.00;;;24.20;99.90;;;;;;5067274;28;20514;-79
2022/06/05 12:52:32;;;;;;;7.32;4.35;;;24.20;99.90;;;;;;5064801;28;20048;-83
2022/06/05 12:55:43;;;;;;;5.90;3.83;;;24.10;99.90;;;;;;5080675;28;20040;-82
2022/06/05 12:58:14;;;;;;;5.70;4.07;;;24.10;99.90;;;;;;5042905;28;20124;-84
2022/06/05 13:00:59;;;;;;;8.10;4.10;;;24.00;99.90;;;;;;5071820;28;20039;-83
2022/06/05 13:03:42;;;;;;;7.07;4.03;;;24.10;99.90;;;;;;5079194;28;20052;-83
2022/06/05 13:06:22;;;;;;;5.57;3.35;;;24.00;99.90;;;;;;5078699;28;20053;-81
2022/06/05 13:08:59;;;;;;;5.68;3.50;;;24.10;99.90;;;;;;5075898;28;20042;-78
2022/06/05 13:11:27;;;;;;;11.35;4.30;;;24.10;99.90;;;;;;5073756;28;20048;-78
2022/06/05 13:14:17;;;;;;;8.27;3.65;;;24.00;99.90;;;;;;5081697;28;20062;-77
2022/06/05 13:16:58;;;;;;;6.93;3.80;;;24.00;99.90;;;;;;5064564;28;20051;-81
2022/06/05 13:19:23;;;;;;;5.97;3.80;;;24.00;99.90;;;;;;5079867;28;20566;-85
2022/06/05 13:22:09;;;;;;;6.85;4.00;;;24.00;99.90;;;;;;5081357;28;20108;-84
2022/06/05 13:24:53;;;;;;;7.60;4.10;;;24.00;99.90;;;;;;5070941;28;20063;-83
2022/06/05 13:27:22;;;;;;;8.55;4.47;;;23.90;99.90;;;;;;5088242;28;20122;-84
2022/06/05 13:29:51;;;;;;;6.07;3.70;;;23.90;99.90;;;;;;5077952;28;20098;-82
2022/06/05 13:32:29;;;;;;;6.50;3.58;;;23.90;99.90;;;;;;5077688;28;20041;-83